Time;durP1;ratioP1;P1;durP2;ratioP2;P2;SDS_P1;SDS_P2;PMS_P1;PMS_P2;Temp;Humidity;BMP_temperature;BMP_pressure;BME280_temperature;BME280_humidity;BME280_pressure;Samples;Min_cycle;Max_cycle;Signal;HPM_P1;HPM_P2
2021/12/03 00:00:21;;;;;;;;;;;;;;;19.96;44.83;99585.31;2099824;28;19939;-62
2021/12/03 00:01:24;;;;;;;;;;;;;;;19.96;44.89;99591.66;2107937;28;19912;-63
2021/12/03 00:02:24;;;;;;;;;;;;;;;19.97;44.77;99593.38;2107467;28;20014;-62
2021/12/03 00:03:25;;;;;;;;;;;;;;;19.98;44.81;99595.06;2091336;28;20015;-63
2021/12/03 00:04:26;;;;;;;;;;;;;;;19.97;44.77;99596.09;2099632;28;20291;-63
2021/12/03 00:05:26;;;;;;;;;;;;;;;19.98;44.85;99589.59;2100273;28;19912;-62
2021/12/03 00:06:27;;;;;;;;;;;;;;;19.98;44.71;99595.06;2100208;28;19908;-64
2021/12/03 00:07:27;;;;;;;;;;;;;;;19.99;44.79;99591.34;2100240;28;20367;-62
2021/12/03 00:08:28;;;;;;;;;;;;;;;19.99;44.63;99601.41;2100229;28;19916;-62
2021/12/03 00:09:34;;;;;;;;;;;;;;;19.98;44.67;99599.69;2097582;28;19912;-63
2021/12/03 00:10:36;;;;;;;;;;;;;;;19.99;44.68;99585.88;2096750;28;19964;-62
2021/12/03 00:11:36;;;;;;;;;;;;;;;20.00;44.63;99600.38;2100054;28;19912;-61
2021/12/03 00:12:37;;;;;;;;;;;;;;;19.99;44.61;99596.81;2107730;28;19919;-62
2021/12/03 00:13:38;;;;;;;;;;;;;;;20.00;44.93;99609.44;2101200;28;19919;-62
2021/12/03 00:14:38;;;;;;;;;;;;;;;19.99;44.90;99599.53;2091020;28;19916;-62
2021/12/03 00:15:38;;;;;;;;;;;;;;;19.98;44.89;99599.69;2091612;28;20283;-62
2021/12/03 00:16:39;;;;;;;;;;;;;;;20.00;44.75;99593.03;2091743;28;19975;-62
2021/12/03 00:17:39;;;;;;;;;;;;;;;20.00;44.80;99603.13;2091636;28;20367;-62
2021/12/03 00:18:40;;;;;;;;;;;;;;;20.00;44.78;99598.50;2091691;28;19912;-62
2021/12/03 00:19:40;;;;;;;;;;;;;;;20.00;44.82;99603.97;2093431;28;19913;-62
2021/12/03 00:20:41;;;;;;;;;;;;;;;20.02;44.73;99590.13;2100158;28;19913;-62
2021/12/03 00:21:41;;;;;;;;;;;;;;;20.02;44.75;99596.47;2099103;28;19920;-62
2021/12/03 00:22:42;;;;;;;;;;;;;;;20.03;44.64;99595.44;2099379;28;20027;-62
2021/12/03 00:23:42;;;;;;;;;;;;;;;20.05;44.79;99593.38;2099791;28;19999;-62
2021/12/03 00:24:43;;;;;;;;;;;;;;;20.08;44.61;99594.91;2107539;28;20382;-62
2021/12/03 00:25:43;;;;;;;;;;;;;;;20.09;44.72;99602.97;2107884;28;19912;-62
2021/12/03 00:26:53;;;;;;;;;;;;;;;20.11;44.58;99606.41;2099855;28;19912;-62
2021/12/03 00:27:53;;;;;;;;;;;;;;;20.12;44.47;99608.09;2094850;28;20016;-64
2021/12/03 00:28:54;;;;;;;;;;;;;;;20.16;44.53;99607.75;2081240;28;19920;-64
2021/12/03 00:29:54;;;;;;;;;;;;;;;20.16;44.63;99610.50;2083292;28;20007;-65
2021/12/03 00:30:54;;;;;;;;;;;;;;;20.18;44.37;99611.19;2084611;28;19931;-64
2021/12/03 00:31:55;;;;;;;;;;;;;;;20.19;44.40;99613.75;2080814;28;19982;-64
2021/12/03 00:32:55;;;;;;;;;;;;;;;20.20;44.54;99617.34;2080305;28;19908;-64
2021/12/03 00:33:55;;;;;;;;;;;;;;;20.23;44.56;99614.28;2084675;28;19915;-64
2021/12/03 00:34:56;;;;;;;;;;;;;;;20.22;44.38;99612.56;2083329;28;20618;-64
2021/12/03 00:35:56;;;;;;;;;;;;;;;20.24;44.43;99616.00;2083954;28;19944;-64
2021/12/03 00:36:56;;;;;;;;;;;;;;;20.25;44.32;99617.69;2084948;28;20428;-64
2021/12/03 00:37:57;;;;;;;;;;;;;;;20.25;44.27;99623.16;2084145;28;19909;-63
2021/12/03 00:38:59;;;;;;;;;;;;;;;20.26;44.54;99619.41;2085257;28;19943;-63
2021/12/03 00:39:59;;;;;;;;;;;;;;;20.28;44.43;99629.16;2083587;28;20763;-64
2021/12/03 00:41:00;;;;;;;;;;;;;;;20.28;44.38;99628.28;2083056;28;20314;-64
2021/12/03 00:42:03;;;;;;;;;;;;;;;20.29;44.49;99627.28;2085451;28;19934;-64
2021/12/03 00:43:04;;;;;;;;;;;;;;;20.28;44.26;99618.19;2081559;28;19938;-64
2021/12/03 00:44:05;;;;;;;;;;;;;;;20.29;44.22;99619.94;2083955;28;19942;-64
2021/12/03 00:45:07;;;;;;;;;;;;;;;20.31;44.22;99626.09;2084227;28;20003;-64
2021/12/03 00:46:09;;;;;;;;;;;;;;;20.31;44.18;99633.47;2083076;28;20298;-64
2021/12/03 00:47:10;;;;;;;;;;;;;;;20.32;44.36;99636.00;2084753;28;19962;-64
2021/12/03 00:48:10;;;;;;;;;;;;;;;20.33;44.24;99628.66;2082029;28;19970;-64
2021/12/03 00:49:10;;;;;;;;;;;;;;;20.33;44.23;99634.13;2087869;28;19916;-64
2021/12/03 00:50:12;;;;;;;;;;;;;;;20.34;44.23;99633.97;2083190;28;20744;-64
2021/12/03 00:51:13;;;;;;;;;;;;;;;20.35;44.07;99640.28;2084417;28;19916;-64
2021/12/03 00:52:14;;;;;;;;;;;;;;;20.37;44.06;99642.88;2085936;28;19916;-64
2021/12/03 00:53:14;;;;;;;;;;;;;;;20.36;44.05;99642.00;2092115;28;20003;-63
2021/12/03 00:54:15;;;;;;;;;;;;;;;20.37;44.21;99646.44;2090505;28;20388;-64
2021/12/03 00:55:16;;;;;;;;;;;;;;;20.37;44.22;99642.88;2082432;28;20291;-64
2021/12/03 00:56:17;;;;;;;;;;;;;;;20.37;44.12;99654.66;2081447;28;20621;-64
2021/12/03 00:57:17;;;;;;;;;;;;;;;20.37;44.06;99642.88;2082642;28;19977;-64
2021/12/03 00:58:18;;;;;;;;;;;;;;;20.39;44.08;99646.28;2083677;28;19920;-64
2021/12/03 00:59:18;;;;;;;;;;;;;;;20.40;44.03;99648.00;2084984;28;19916;-64
2021/12/03 01:00:23;;;;;;;;;;;;;;;20.40;44.00;99653.47;2078757;28;19912;-67
2021/12/03 01:01:23;;;;;;;;;;;;;;;20.40;44.01;99654.31;2083454;28;19916;-67
2021/12/03 01:02:23;;;;;;;;;;;;;;;20.40;44.08;99651.59;2082498;28;19916;-67
2021/12/03 01:03:24;;;;;;;;;;;;;;;20.42;44.17;99656.91;2081776;28;19916;-67
2021/12/03 01:04:24;;;;;;;;;;;;;;;20.41;43.95;99649.72;2084345;28;19921;-67
2021/12/03 01:05:25;;;;;;;;;;;;;;;20.40;44.18;99648.84;2083881;28;19923;-67
2021/12/03 01:06:31;;;;;;;;;;;;;;;20.39;43.97;99652.63;2084587;28;19940;-67
2021/12/03 01:07:32;;;;;;;;;;;;;;;20.40;44.06;99654.31;2082256;28;20840;-67
2021/12/03 01:08:35;;;;;;;;;;;;;;;20.38;44.20;99645.41;2083989;28;19917;-67
2021/12/03 01:09:35;;;;;;;;;;;;;;;20.40;44.03;99657.06;2082153;28;19916;-67
2021/12/03 01:10:36;;;;;;;;;;;;;;;20.40;44.07;99654.31;2084765;28;19956;-67
2021/12/03 01:11:36;;;;;;;;;;;;;;;20.41;44.10;99661.53;2081305;28;19983;-67
2021/12/03 01:12:37;;;;;;;;;;;;;;;20.41;44.07;99656.06;2082380;28;19908;-67
2021/12/03 01:13:38;;;;;;;;;;;;;;;20.40;44.04;99654.31;2083028;28;19958;-67
2021/12/03 01:14:39;;;;;;;;;;;;;;;20.41;44.02;99656.06;2083311;28;19935;-68
2021/12/03 01:15:40;;;;;;;;;;;;;;;20.39;44.07;99652.63;2081699;28;19959;-67
2021/12/03 01:16:41;;;;;;;;;;;;;;;20.40;44.09;99654.31;2077063;28;19911;-67
2021/12/03 01:17:41;;;;;;;;;;;;;;;20.38;44.08;99661.84;2082859;28;20414;-68
2021/12/03 01:18:42;;;;;;;;;;;;;;;20.39;43.96;99663.56;2083822;28;20094;-67
2021/12/03 01:19:43;;;;;;;;;;;;;;;20.39;44.12;99655.34;2077642;28;19920;-67
2021/12/03 01:20:44;;;;;;;;;;;;;;;20.39;43.96;99663.56;2082252;28;20004;-67
2021/12/03 01:21:44;;;;;;;;;;;;;;;20.39;43.99;99658.09;2082215;28;20038;-67
2021/12/03 01:22:46;;;;;;;;;;;;;;;20.37;44.18;99660.13;2084669;28;19909;-67
2021/12/03 01:23:46;;;;;;;;;;;;;;;20.39;44.13;99665.47;2081283;28;20322;-67
2021/12/03 01:24:46;;;;;;;;;;;;;;;20.39;44.03;99663.56;2086574;28;19916;-68
2021/12/03 01:25:47;;;;;;;;;;;;;;;20.38;44.12;99667.31;2078416;28;19967;-67
2021/12/03 01:26:51;;;;;;;;;;;;;;;20.39;44.12;99666.31;2080997;28;20705;-67
2021/12/03 01:27:53;;;;;;;;;;;;;;;20.39;44.24;99674.53;2083992;28;19923;-67
2021/12/03 01:28:53;;;;;;;;;;;;;;;20.38;44.17;99672.78;2083426;28;20100;-68
2021/12/03 01:29:55;;;;;;;;;;;;;;;20.38;44.12;99672.78;2078057;28;19936;-67
2021/12/03 01:30:56;;;;;;;;;;;;;;;20.37;44.08;99676.56;2084047;28;20774;-67
2021/12/03 01:31:57;;;;;;;;;;;;;;;20.39;44.08;99676.41;2082900;28;19920;-68
2021/12/03 01:32:58;;;;;;;;;;;;;;;20.37;44.04;99671.09;2084383;28;19920;-68
2021/12/03 01:33:58;;;;;;;;;;;;;;;20.38;44.09;99681.00;2083937;28;19969;-67
2021/12/03 01:34:59;;;;;;;;;;;;;;;20.37;44.20;99676.56;2082949;28;20375;-67
2021/12/03 01:35:59;;;;;;;;;;;;;;;20.37;44.21;99679.31;2091695;28;20692;-68
2021/12/03 01:36:59;;;;;;;;;;;;;;;20.35;44.10;99679.47;2092704;28;19931;-67
2021/12/03 01:38:00;;;;;;;;;;;;;;;20.35;44.17;99673.97;2084135;28;20318;-67
2021/12/03 01:39:01;;;;;;;;;;;;;;;20.37;44.16;99681.19;2083823;28;19974;-68
2021/12/03 01:40:01;;;;;;;;;;;;;;;20.34;44.28;99685.13;2082780;28;20002;-68
2021/12/03 01:41:02;;;;;;;;;;;;;;;20.34;44.22;99687.84;2084614;28;19917;-68
2021/12/03 01:42:02;;;;;;;;;;;;;;;20.33;44.21;99686.13;2081148;28;20431;-68
2021/12/03 01:43:04;;;;;;;;;;;;;;;20.33;44.19;99691.59;2084763;28;19921;-67
2021/12/03 01:44:05;;;;;;;;;;;;;;;20.32;44.14;99684.44;2083592;28;20458;-67
2021/12/03 01:45:06;;;;;;;;;;;;;;;20.33;44.19;99697.06;2082571;28;20393;-67
2021/12/03 01:46:10;;;;;;;;;;;;;;;20.32;44.08;99698.13;2079062;28;19928;-67
2021/12/03 01:47:10;;;;;;;;;;;;;;;20.32;44.23;99695.38;2082867;28;20768;-67
2021/12/03 01:48:10;;;;;;;;;;;;;;;20.30;44.16;99691.94;2082668;28;20537;-67
2021/12/03 01:49:12;;;;;;;;;;;;;;;20.31;44.16;99699.16;2082828;28;19955;-67
2021/12/03 01:50:13;;;;;;;;;;;;;;;20.30;44.30;99700.16;2083830;28;20413;-67
2021/12/03 01:51:13;;;;;;;;;;;;;;;20.30;44.19;99703.75;2076392;28;19921;-68
2021/12/03 01:52:13;;;;;;;;;;;;;;;20.29;44.22;99714.88;2082943;28;19923;-67
2021/12/03 01:53:15;;;;;;;;;;;;;;;20.28;44.42;99699.47;2083518;28;20118;-67
2021/12/03 01:54:15;;;;;;;;;;;;;;;20.28;44.40;99710.41;2083149;28;20379;-67
2021/12/03 01:55:16;;;;;;;;;;;;;;;20.29;44.22;99712.13;2082684;28;20522;-67
2021/12/03 01:56:17;;;;;;;;;;;;;;;20.28;44.44;99715.88;2081363;28;19913;-67
2021/12/03 01:57:17;;;;;;;;;;;;;;;20.26;44.34;99716.06;2082871;28;19955;-67
2021/12/03 01:58:17;;;;;;;;;;;;;;;20.25;44.27;99711.59;2081624;28;20661;-67
2021/12/03 01:59:18;;;;;;;;;;;;;;;20.25;44.33;99725.28;2083260;28;19943;-68
2021/12/03 02:00:29;;;;;;;;;;;;;;;20.25;44.28;99721.69;2082590;28;19908;-67
2021/12/03 02:01:29;;;;;;;;;;;;;;;20.23;44.51;99724.59;2081932;28;20015;-68
2021/12/03 02:02:29;;;;;;;;;;;;;;;20.23;44.40;99721.00;2083042;28;19912;-67
2021/12/03 02:03:31;;;;;;;;;;;;;;;20.23;44.34;99729.22;2083480;28;20454;-67
2021/12/03 02:04:31;;;;;;;;;;;;;;;20.22;44.52;99727.50;2082811;28;20837;-67
2021/12/03 02:05:32;;;;;;;;;;;;;;;20.22;44.35;99732.97;2081777;28;20991;-67
2021/12/03 02:06:32;;;;;;;;;;;;;;;20.22;44.54;99722.03;2083891;28;19928;-67
2021/12/03 02:07:33;;;;;;;;;;;;;;;20.21;44.53;99725.78;2081218;28;20397;-68
2021/12/03 02:08:33;;;;;;;;;;;;;;;20.19;44.70;99723.22;2083601;28;19998;-67
2021/12/03 02:09:34;;;;;;;;;;;;;;;20.20;44.41;99726.81;2081094;28;19913;-68
2021/12/03 02:10:34;;;;;;;;;;;;;;;20.18;44.58;99720.66;2085308;28;19928;-68
2021/12/03 02:11:35;;;;;;;;;;;;;;;20.18;44.69;99720.66;2082360;28;19923;-68
2021/12/03 02:12:35;;;;;;;;;;;;;;;20.18;44.69;99734.34;2082497;28;20013;-68
2021/12/03 02:13:36;;;;;;;;;;;;;;;20.16;44.59;99739.09;2081988;28;19939;-68
2021/12/03 02:14:36;;;;;;;;;;;;;;;20.17;44.50;99738.09;2087117;28;20045;-68
2021/12/03 02:15:37;;;;;;;;;;;;;;;20.17;44.56;99740.84;2081202;28;19916;-68
2021/12/03 02:16:38;;;;;;;;;;;;;;;20.15;44.67;99731.94;2083376;28;20909;-68
2021/12/03 02:17:38;;;;;;;;;;;;;;;20.13;44.61;99735.69;2082567;28;19934;-68
2021/12/03 02:18:39;;;;;;;;;;;;;;;20.12;44.60;99739.44;2082332;28;20618;-68
2021/12/03 02:19:40;;;;;;;;;;;;;;;20.12;44.61;99739.44;2082728;28;19966;-68
2021/12/03 02:20:41;;;;;;;;;;;;;;;20.11;44.69;99740.47;2083677;28;20091;-68
2021/12/03 02:21:42;;;;;;;;;;;;;;;20.10;44.72;99741.47;2081969;28;19916;-68
2021/12/03 02:22:43;;;;;;;;;;;;;;;20.11;44.71;99750.53;2080962;28;20019;-68
2021/12/03 02:23:44;;;;;;;;;;;;;;;20.09;44.67;99756.19;2080526;28;19932;-66
2021/12/03 02:24:45;;;;;;;;;;;;;;;20.09;44.78;99745.25;2082869;28;19960;-66
2021/12/03 02:25:46;;;;;;;;;;;;;;;20.08;44.76;99746.25;2082775;28;20711;-67
2021/12/03 02:26:47;;;;;;;;;;;;;;;20.07;44.81;99752.78;2082104;28;19923;-67
2021/12/03 02:27:50;;;;;;;;;;;;;;;20.07;44.71;99750.03;2086473;28;20397;-67
2021/12/03 02:28:51;;;;;;;;;;;;;;;20.06;44.91;99745.59;2085419;28;20047;-68
2021/12/03 02:29:51;;;;;;;;;;;;;;;20.06;44.94;99751.06;2082706;28;20387;-67
2021/12/03 02:30:52;;;;;;;;;;;;;;;20.05;44.88;99749.34;2084141;28;20374;-67
2021/12/03 02:31:53;;;;;;;;;;;;;;;20.05;44.82;99746.59;2081126;28;20315;-67
2021/12/03 02:32:54;;;;;;;;;;;;;;;20.04;44.96;99750.38;2083026;28;19966;-67
2021/12/03 02:33:54;;;;;;;;;;;;;;;20.03;44.91;99748.63;2082203;28;20308;-67
2021/12/03 02:34:55;;;;;;;;;;;;;;;20.02;44.91;99744.19;2081054;28;19921;-67
2021/12/03 02:35:55;;;;;;;;;;;;;;;20.02;44.94;99749.66;2083693;28;20268;-67
2021/12/03 02:36:55;;;;;;;;;;;;;;;20.02;45.00;99751.56;2080067;28;20007;-67
2021/12/03 02:37:55;;;;;;;;;;;;;;;20.01;44.95;99750.66;2079222;28;20587;-67
2021/12/03 02:38:56;;;;;;;;;;;;;;;20.00;44.94;99750.84;2080403;28;19956;-67
2021/12/03 02:39:56;;;;;;;;;;;;;;;20.00;44.94;99750.84;2080938;28;19926;-67
2021/12/03 02:40:57;;;;;;;;;;;;;;;19.99;45.03;99751.84;2084654;28;20896;-67
2021/12/03 02:41:57;;;;;;;;;;;;;;;19.98;44.99;99753.75;2081011;28;20542;-67
2021/12/03 02:42:58;;;;;;;;;;;;;;;19.97;45.16;99760.25;2084377;28;20312;-67
2021/12/03 02:43:58;;;;;;;;;;;;;;;19.96;45.23;99754.94;2079766;28;19920;-67
2021/12/03 02:44:59;;;;;;;;;;;;;;;19.96;45.20;99761.25;2082859;28;21232;-67
2021/12/03 02:45:59;;;;;;;;;;;;;;;19.95;45.11;99754.09;2086206;28;19955;-67
2021/12/03 02:46:59;;;;;;;;;;;;;;;19.94;45.13;99755.09;2082550;28;19915;-67
2021/12/03 02:48:00;;;;;;;;;;;;;;;19.93;45.19;99750.66;2083135;28;19936;-67
2021/12/03 02:49:00;;;;;;;;;;;;;;;19.92;45.12;99754.41;2084201;28;19947;-66
2021/12/03 02:50:01;;;;;;;;;;;;;;;19.92;45.26;99759.88;2083677;28;19924;-67
2021/12/03 02:51:02;;;;;;;;;;;;;;;19.92;45.21;99765.34;2084221;28;19909;-67
2021/12/03 02:52:03;;;;;;;;;;;;;;;19.91;45.28;99760.88;2083260;28;19942;-67
2021/12/03 02:53:04;;;;;;;;;;;;;;;19.90;45.29;99770.13;2084486;28;19919;-67
2021/12/03 02:54:06;;;;;;;;;;;;;;;19.90;45.35;99762.78;2082829;28;20291;-67
2021/12/03 02:55:07;;;;;;;;;;;;;;;19.89;45.30;99760.19;2083595;28;19923;-67
2021/12/03 02:56:12;;;;;;;;;;;;;;;19.90;45.16;99768.25;2084225;28;19920;-67
2021/12/03 02:57:13;;;;;;;;;;;;;;;19.88;45.36;99769.44;2083887;28;19916;-67
2021/12/03 02:58:13;;;;;;;;;;;;;;;19.87;45.29;99771.31;2084231;28;19923;-66
2021/12/03 02:59:13;;;;;;;;;;;;;;;19.87;45.23;99771.31;2083517;28;20697;-67
2021/12/03 03:00:16;;;;;;;;;;;;;;;19.87;45.49;99770.47;2082128;28;20391;-67
2021/12/03 03:01:16;;;;;;;;;;;;;;;19.86;45.42;99777.78;2082442;28;20015;-67
2021/12/03 03:03:54;;;;;;;;;;;;;;;19.85;45.44;99778.81;2079541;28;19920;-67
2021/12/03 03:04:55;;;;;;;;;;;;;;;19.85;45.41;99781.56;2079503;28;19912;-67
2021/12/03 03:05:56;;;;;;;;;;;;;;;19.83;45.37;99788.22;2084593;28;19915;-67
2021/12/03 03:06:57;;;;;;;;;;;;;;;19.85;45.46;99786.19;2082866;28;19916;-68
2021/12/03 03:07:57;;;;;;;;;;;;;;;19.84;45.47;99796.25;2082998;28;19908;-67
2021/12/03 03:08:58;;;;;;;;;;;;;;;19.84;45.31;99795.38;2084348;28;19916;-67
2021/12/03 03:09:58;;;;;;;;;;;;;;;19.84;45.52;99789.91;2082222;28;19913;-67
2021/12/03 03:11:02;;;;;;;;;;;;;;;19.83;45.37;99793.69;2084717;28;20339;-67
2021/12/03 03:12:02;;;;;;;;;;;;;;;19.82;45.36;99794.69;2083196;28;19923;-67
2021/12/03 03:13:02;;;;;;;;;;;;;;;19.82;45.52;99795.56;2082481;28;19913;-67
2021/12/03 03:14:04;;;;;;;;;;;;;;;19.82;45.54;99791.94;2089633;28;20890;-68
2021/12/03 03:15:05;;;;;;;;;;;;;;;19.82;45.49;99800.16;2086638;28;20667;-67
2021/12/03 03:16:06;;;;;;;;;;;;;;;19.81;45.49;99801.19;2083886;28;19928;-67
2021/12/03 03:17:06;;;;;;;;;;;;;;;19.79;45.53;99801.34;2082785;28;20603;-67
2021/12/03 03:18:09;;;;;;;;;;;;;;;19.80;45.42;99803.06;2083274;28;20334;-68
2021/12/03 03:19:20;;;;;;;;;;;;;;;19.79;45.51;99801.34;2089663;28;20359;-67
2021/12/03 03:20:21;;;;;;;;;;;;;;;19.80;45.45;99799.47;2082387;28;19917;-67
2021/12/03 03:21:21;;;;;;;;;;;;;;;19.78;45.60;99806.97;2083721;28;20311;-67
2021/12/03 03:22:22;;;;;;;;;;;;;;;19.77;45.49;99806.13;2083940;28;19923;-67
2021/12/03 03:23:22;;;;;;;;;;;;;;;19.77;45.56;99806.13;2083302;28;19921;-67
2021/12/03 03:24:23;;;;;;;;;;;;;;;19.76;45.48;99809.88;2085197;28;20473;-67
2021/12/03 03:25:23;;;;;;;;;;;;;;;19.76;45.60;99809.00;2084294;28;20393;-67
2021/12/03 03:26:23;;;;;;;;;;;;;;;19.75;45.51;99808.16;2085346;28;19923;-67
2021/12/03 03:27:24;;;;;;;;;;;;;;;19.74;45.65;99805.59;2082833;28;19934;-67
2021/12/03 03:28:25;;;;;;;;;;;;;;;19.75;45.62;99807.31;2083586;28;20449;-67
2021/12/03 03:29:25;;;;;;;;;;;;;;;19.73;45.51;99802.00;2085668;28;21037;-67
2021/12/03 03:30:25;;;;;;;;;;;;;;;19.73;45.61;99803.88;2085685;28;19946;-67
2021/12/03 03:31:26;;;;;;;;;;;;;;;19.73;45.63;99798.41;2084463;28;19932;-67
2021/12/03 03:32:27;;;;;;;;;;;;;;;19.72;45.69;99800.28;2084577;28;19928;-67
2021/12/03 03:33:28;;;;;;;;;;;;;;;19.70;45.71;99800.44;2083718;28;20095;-67
2021/12/03 03:34:28;;;;;;;;;;;;;;;19.70;45.69;99800.44;2085098;28;19962;-67
2021/12/03 03:35:29;;;;;;;;;;;;;;;19.70;45.79;99807.78;2084068;28;19924;-67
2021/12/03 03:36:33;;;;;;;;;;;;;;;19.68;45.66;99807.94;2081990;28;19928;-67
2021/12/03 03:37:34;;;;;;;;;;;;;;;19.67;45.76;99806.25;2084832;28;19947;-67
2021/12/03 03:38:35;;;;;;;;;;;;;;;19.68;45.77;99807.94;2095865;28;20370;-61
2021/12/03 03:39:45;;;;;;;;;;;;;;;19.67;45.83;99811.72;2100318;28;19917;-61
2021/12/03 03:40:46;;;;;;;;;;;;;;;19.67;45.81;99819.00;2100282;28;19942;-62
2021/12/03 03:41:47;;;;;;;;;;;;;;;19.66;45.96;99817.28;2100433;28;19912;-61
2021/12/03 03:42:47;;;;;;;;;;;;;;;19.65;45.84;99819.19;2100108;28;20362;-61
2021/12/03 03:43:48;;;;;;;;;;;;;;;19.65;45.89;99824.66;2100111;28;20294;-62
2021/12/03 03:44:48;;;;;;;;;;;;;;;19.64;45.77;99828.38;2110208;28;19916;-62
2021/12/03 03:45:51;;;;;;;;;;;;;;;19.64;45.79;99833.84;2116430;28;19973;-62
2021/12/03 03:46:52;;;;;;;;;;;;;;;19.65;45.85;99840.19;2107783;28;19919;-61
2021/12/03 03:47:53;;;;;;;;;;;;;;;19.63;45.89;99837.63;2100117;28;19916;-61
2021/12/03 03:48:53;;;;;;;;;;;;;;;19.63;45.83;99844.97;2099446;28;19909;-62
2021/12/03 03:49:54;;;;;;;;;;;;;;;19.63;45.85;99853.16;2099661;28;19913;-62
2021/12/03 03:50:54;;;;;;;;;;;;;;;19.62;45.86;99849.59;2100366;28;19908;-61
2021/12/03 03:51:55;;;;;;;;;;;;;;;19.61;45.87;99849.72;2100276;28;19908;-61
2021/12/03 03:52:56;;;;;;;;;;;;;;;19.60;45.84;99848.00;2100230;28;19908;-61
2021/12/03 03:53:56;;;;;;;;;;;;;;;19.60;45.87;99848.00;2100186;28;19919;-62
2021/12/03 03:54:57;;;;;;;;;;;;;;;19.58;45.93;99859.09;2100294;28;19951;-62
2021/12/03 03:55:57;;;;;;;;;;;;;;;19.57;45.83;99851.91;2107879;28;19916;-62
2021/12/03 03:56:58;;;;;;;;;;;;;;;19.57;46.01;99860.09;2108055;28;19916;-62
2021/12/03 03:58:00;;;;;;;;;;;;;;;19.56;45.89;99858.41;2100107;28;19924;-62
2021/12/03 03:59:00;;;;;;;;;;;;;;;19.56;45.96;99858.41;2100161;28;19916;-62
2021/12/03 04:00:01;;;;;;;;;;;;;;;19.56;45.97;99863.03;2100192;28;19912;-62
2021/12/03 04:01:01;;;;;;;;;;;;;;;19.55;46.00;99858.56;2107361;28;19918;-62
2021/12/03 04:02:01;;;;;;;;;;;;;;;19.53;46.02;99855.16;2108055;28;20010;-61
2021/12/03 04:03:02;;;;;;;;;;;;;;;19.54;46.00;99863.16;2099998;28;20286;-61
2021/12/03 04:04:02;;;;;;;;;;;;;;;19.53;46.02;99853.25;2099968;28;20038;-62
2021/12/03 04:05:03;;;;;;;;;;;;;;;19.52;46.13;99859.72;2099995;28;19920;-61
2021/12/03 04:06:04;;;;;;;;;;;;;;;19.53;46.01;99857.88;2100068;28;19947;-63
2021/12/03 04:07:04;;;;;;;;;;;;;;;19.51;46.11;99860.75;2099981;28;19912;-62
2021/12/03 04:08:05;;;;;;;;;;;;;;;19.51;46.16;99865.38;2100035;28;19913;-62
2021/12/03 04:09:06;;;;;;;;;;;;;;;19.50;46.23;99870.00;2099848;28;19967;-62
2021/12/03 04:10:08;;;;;;;;;;;;;;;19.49;46.15;99877.31;2100140;28;19935;-62
2021/12/03 04:11:08;;;;;;;;;;;;;;;19.50;46.11;99875.47;2107598;28;20400;-62
2021/12/03 04:12:08;;;;;;;;;;;;;;;19.49;46.03;99884.66;2107906;28;19916;-62
2021/12/03 04:13:09;;;;;;;;;;;;;;;19.47;46.13;99882.06;2100190;28;19919;-62
2021/12/03 04:14:09;;;;;;;;;;;;;;;19.48;46.20;99881.06;2100203;28;19913;-63
2021/12/03 04:15:11;;;;;;;;;;;;;;;19.48;46.17;99882.94;2099193;28;20424;-63
2021/12/03 04:16:11;;;;;;;;;;;;;;;19.46;46.23;99885.84;2099426;28;20369;-62
2021/12/03 04:17:11;;;;;;;;;;;;;;;19.45;46.26;99886.88;2099440;28;19916;-62
2021/12/03 04:18:19;;;;;;;;;;;;;;;19.46;46.22;99887.72;2099278;28;19913;-62
2021/12/03 04:19:19;;;;;;;;;;;;;;;19.45;46.36;99885.97;2106951;28;19966;-62
2021/12/03 04:20:21;;;;;;;;;;;;;;;19.43;46.31;99891.63;2100082;28;19919;-62
2021/12/03 04:21:22;;;;;;;;;;;;;;;19.44;46.31;99892.47;2100099;28;20005;-62
2021/12/03 04:22:24;;;;;;;;;;;;;;;19.42;46.33;99903.56;2099999;28;19916;-62
2021/12/03 04:23:24;;;;;;;;;;;;;;;19.42;46.37;99909.03;2099310;28;20385;-62
2021/12/03 04:24:25;;;;;;;;;;;;;;;19.41;46.39;99915.50;2099483;28;20341;-62
2021/12/03 04:25:25;;;;;;;;;;;;;;;19.41;46.41;99912.78;2100039;28;19908;-63
2021/12/03 04:26:25;;;;;;;;;;;;;;;19.42;46.36;99914.47;2098206;28;19948;-62
2021/12/03 04:27:26;;;;;;;;;;;;;;;19.42;46.37;99919.09;2091871;28;19924;-62
2021/12/03 04:28:26;;;;;;;;;;;;;;;19.41;46.32;99917.41;2091666;28;20363;-62
2021/12/03 04:29:26;;;;;;;;;;;;;;;19.40;46.17;99918.41;2099340;28;20256;-63
2021/12/03 04:30:28;;;;;;;;;;;;;;;19.41;46.40;99922.88;2099511;28;20000;-63
2021/12/03 04:31:29;;;;;;;;;;;;;;;19.40;46.46;99923.84;2091669;28;19921;-62
2021/12/03 04:32:29;;;;;;;;;;;;;;;19.40;46.41;99935.69;2091835;28;19916;-63
2021/12/03 04:33:29;;;;;;;;;;;;;;;19.39;46.42;99927.63;2105462;28;19919;-63
2021/12/03 04:34:30;;;;;;;;;;;;;;;19.38;46.42;99926.78;2107572;28;20297;-62
2021/12/03 04:35:30;;;;;;;;;;;;;;;19.38;46.30;99920.44;2099038;28;20366;-63
2021/12/03 04:36:30;;;;;;;;;;;;;;;19.38;46.35;99925.91;2099851;28;19935;-63
2021/12/03 04:37:31;;;;;;;;;;;;;;;19.37;46.42;99924.19;2099760;28;19913;-63
2021/12/03 04:38:31;;;;;;;;;;;;;;;19.37;46.33;99924.19;2100057;28;19962;-63
2021/12/03 04:39:31;;;;;;;;;;;;;;;19.36;46.36;99927.94;2098937;28;19913;-63
2021/12/03 04:40:34;;;;;;;;;;;;;;;19.35;46.42;99918.84;2099339;28;20262;-63
2021/12/03 04:41:34;;;;;;;;;;;;;;;19.34;46.44;99919.03;2107317;28;19935;-63
2021/12/03 04:42:34;;;;;;;;;;;;;;;19.32;46.30;99919.19;2107715;28;19935;-63
2021/12/03 04:43:34;;;;;;;;;;;;;;;19.33;46.41;99917.28;2100082;28;19942;-62
2021/12/03 04:44:35;;;;;;;;;;;;;;;19.31;46.49;99916.63;2107488;28;20093;-63
2021/12/03 04:45:35;;;;;;;;;;;;;;;19.31;46.51;99920.22;2107871;28;19920;-62
2021/12/03 04:46:36;;;;;;;;;;;;;;;19.32;46.53;99921.06;2099814;28;19919;-63
2021/12/03 04:47:36;;;;;;;;;;;;;;;19.31;46.48;99922.09;2099934;28;19913;-62
2021/12/03 04:48:37;;;;;;;;;;;;;;;19.30;46.59;99926.66;2107288;28;19916;-63
2021/12/03 04:49:37;;;;;;;;;;;;;;;19.30;46.54;99923.09;2107657;28;19912;-63
2021/12/03 04:50:38;;;;;;;;;;;;;;;19.27;46.61;99933.31;2099690;28;19917;-66
2021/12/03 04:51:39;;;;;;;;;;;;;;;19.28;46.58;99937.78;2099843;28;20001;-66
2021/12/03 04:52:39;;;;;;;;;;;;;;;19.27;46.54;99935.19;2099848;28;19912;-66
2021/12/03 04:53:40;;;;;;;;;;;;;;;19.27;46.53;99933.31;2099704;28;19913;-67
2021/12/03 04:54:42;;;;;;;;;;;;;;;19.26;46.59;99942.53;2099797;28;19912;-65
2021/12/03 04:55:42;;;;;;;;;;;;;;;19.26;46.55;99934.34;2099749;28;20325;-66
2021/12/03 04:56:43;;;;;;;;;;;;;;;19.25;46.57;99938.06;2099922;28;20013;-66
2021/12/03 04:57:43;;;;;;;;;;;;;;;19.25;46.50;99945.41;2099682;28;19913;-65
2021/12/03 04:58:44;;;;;;;;;;;;;;;19.24;46.55;99947.28;2099733;28;19919;-67
2021/12/03 04:59:44;;;;;;;;;;;;;;;19.23;46.58;99948.31;2099784;28;19908;-66
2021/12/03 05:00:47;;;;;;;;;;;;;;;19.24;46.53;99947.28;2099817;28;20382;-66
2021/12/03 05:01:47;;;;;;;;;;;;;;;19.23;46.58;99940.13;2107388;28;19912;-66
2021/12/03 05:02:54;;;;;;;;;;;;;;;19.23;46.57;99944.69;2107288;28;19912;-66
2021/12/03 05:03:55;;;;;;;;;;;;;;;19.22;46.52;99941.09;2099326;28;20329;-67
2021/12/03 05:05:00;;;;;;;;;;;;;;;19.22;46.62;99943.00;2099722;28;19962;-66
2021/12/03 05:06:02;;;;;;;;;;;;;;;19.22;46.56;99943.84;2099708;28;19919;-66
2021/12/03 05:08:10;;;;;;;;;;;;;;;19.19;46.81;99938.69;2099098;28;20010;-66
2021/12/03 05:09:10;;;;;;;;;;;;;;;19.19;46.71;99944.16;2091446;28;19920;-66
2021/12/03 05:10:11;;;;;;;;;;;;;;;19.18;46.72;99952.50;2090669;28;19960;-66
2021/12/03 05:11:11;;;;;;;;;;;;;;;19.18;46.77;99949.75;2098856;28;19944;-66
2021/12/03 05:12:11;;;;;;;;;;;;;;;19.17;46.69;99943.44;2107376;28;19912;-66
2021/12/03 05:13:14;;;;;;;;;;;;;;;19.17;46.65;99946.19;2099660;28;19939;-66
2021/12/03 05:14:14;;;;;;;;;;;;;;;19.15;46.77;99948.19;2099820;28;19918;-66
2021/12/03 05:15:14;;;;;;;;;;;;;;;19.17;46.82;99954.38;2092622;28;19913;-65
2021/12/03 05:16:16;;;;;;;;;;;;;;;19.16;46.69;99951.81;2093108;28;19913;-65
2021/12/03 05:17:16;;;;;;;;;;;;;;;19.15;46.76;99959.13;2099485;28;19912;-65
2021/12/03 05:18:18;;;;;;;;;;;;;;;19.15;46.77;99953.66;2099592;28;19908;-65
2021/12/03 05:19:18;;;;;;;;;;;;;;;19.13;46.81;99955.69;2099624;28;19912;-66
2021/12/03 05:20:19;;;;;;;;;;;;;;;19.14;46.80;99962.88;2099709;28;20039;-66